Terminal Aerodrome Forecast
Issued by NWS Sioux Falls, SD

Current Version | Previous Version | Text Only | Print | Product List | Glossary On
Versions: 1 2 3 4 5 6 7 8 9 10 11 12 13
000
FTUS43 KFSD 300520
TAFHON
TAF
KHON 300520Z 3006/0106 08005KT P6SM OVC150
     FM301200 03010KT P6SM BKN130
     FM301900 03021G29KT P6SM VCSH OVC090
     FM302200 02019G27KT P6SM RA OVC045
     FM010300 01014G23KT P6SM RA OVC030=

USA.gov is the U.S. government's official web portal to all federal, state and local government web resources and services.